sensor_id;sensor_type;location;lat;lon;timestamp;P1;durP1;ratioP1;P2;durP2;ratioP2
16979;SDS011;42288;52.182;21.156;2022-11-20T00:00:49;81.77;;;31.53;;
16979;SDS011;42288;52.182;21.156;2022-11-20T00:03:15;81.20;;;32.97;;
16979;SDS011;42288;52.182;21.156;2022-11-20T00:05:40;80.50;;;32.30;;
16979;SDS011;42288;52.182;21.156;2022-11-20T00:08:06;83.80;;;32.77;;
16979;SDS011;42288;52.182;21.156;2022-11-20T00:10:31;73.10;;;30.13;;
16979;SDS011;42288;52.182;21.156;2022-11-20T00:12:57;79.37;;;30.37;;
16979;SDS011;42288;52.182;21.156;2022-11-20T00:15:23;74.43;;;30.70;;
16979;SDS011;42288;52.182;21.156;2022-11-20T00:17:49;81.70;;;33.53;;
16979;SDS011;42288;52.182;21.156;2022-11-20T00:20:14;72.27;;;29.93;;
16979;SDS011;42288;52.182;21.156;2022-11-20T00:22:40;78.13;;;32.97;;
16979;SDS011;42288;52.182;21.156;2022-11-20T00:25:05;77.30;;;31.10;;
16979;SDS011;42288;52.182;21.156;2022-11-20T00:27:31;76.73;;;30.90;;
16979;SDS011;42288;52.182;21.156;2022-11-20T00:29:57;80.50;;;30.93;;
16979;SDS011;42288;52.182;21.156;2022-11-20T00:32:22;73.00;;;31.53;;
16979;SDS011;42288;52.182;21.156;2022-11-20T00:34:48;72.73;;;30.30;;
16979;SDS011;42288;52.182;21.156;2022-11-20T00:37:13;65.57;;;29.17;;
16979;SDS011;42288;52.182;21.156;2022-11-20T00:39:39;77.37;;;29.90;;
16979;SDS011;42288;52.182;21.156;2022-11-20T00:42:04;77.70;;;30.97;;
16979;SDS011;42288;52.182;21.156;2022-11-20T00:44:30;81.40;;;31.40;;
16979;SDS011;42288;52.182;21.156;2022-11-20T00:46:55;84.27;;;32.03;;
16979;SDS011;42288;52.182;21.156;2022-11-20T00:49:21;83.17;;;32.73;;
16979;SDS011;42288;52.182;21.156;2022-11-20T00:51:46;79.47;;;31.57;;
16979;SDS011;42288;52.182;21.156;2022-11-20T00:54:11;90.37;;;31.33;;
16979;SDS011;42288;52.182;21.156;2022-11-20T00:56:37;89.27;;;30.67;;
16979;SDS011;42288;52.182;21.156;2022-11-20T00:59:02;69.40;;;27.53;;
16979;SDS011;42288;52.182;21.156;2022-11-20T01:01:28;76.53;;;31.27;;
16979;SDS011;42288;52.182;21.156;2022-11-20T01:03:55;69.90;;;29.10;;
16979;SDS011;42288;52.182;21.156;2022-11-20T01:06:24;71.10;;;28.33;;
16979;SDS011;42288;52.182;21.156;2022-11-20T01:08:52;68.87;;;27.47;;
16979;SDS011;42288;52.182;21.156;2022-11-20T01:11:21;76.93;;;28.53;;
16979;SDS011;42288;52.182;21.156;2022-11-20T01:13:49;73.27;;;28.80;;
16979;SDS011;42288;52.182;21.156;2022-11-20T01:18:47;74.83;;;31.07;;
16979;SDS011;42288;52.182;21.156;2022-11-20T01:21:16;72.30;;;31.17;;
16979;SDS011;42288;52.182;21.156;2022-11-20T01:23:43;75.80;;;29.77;;
16979;SDS011;42288;52.182;21.156;2022-11-20T01:26:11;82.50;;;31.10;;
16979;SDS011;42288;52.182;21.156;2022-11-20T01:28:38;75.17;;;30.13;;
16979;SDS011;42288;52.182;21.156;2022-11-20T01:31:14;77.57;;;31.63;;
16979;SDS011;42288;52.182;21.156;2022-11-20T01:33:51;69.80;;;29.13;;
16979;SDS011;42288;52.182;21.156;2022-11-20T01:36:18;74.13;;;29.10;;
16979;SDS011;42288;52.182;21.156;2022-11-20T01:38:45;70.50;;;28.97;;
16979;SDS011;42288;52.182;21.156;2022-11-20T01:41:11;75.43;;;29.87;;
16979;SDS011;42288;52.182;21.156;2022-11-20T01:43:59;73.13;;;28.60;;
16979;SDS011;42288;52.182;21.156;2022-11-20T01:46:25;84.80;;;33.37;;
16979;SDS011;42288;52.182;21.156;2022-11-20T01:51:56;73.20;;;29.83;;
16979;SDS011;42288;52.182;21.156;2022-11-20T01:54:40;75.47;;;29.17;;
16979;SDS011;42288;52.182;21.156;2022-11-20T01:57:12;70.93;;;28.60;;
16979;SDS011;42288;52.182;21.156;2022-11-20T01:59:41;67.87;;;29.13;;
16979;SDS011;42288;52.182;21.156;2022-11-20T02:02:12;76.33;;;29.60;;
16979;SDS011;42288;52.182;21.156;2022-11-20T02:04:38;67.17;;;26.87;;
16979;SDS011;42288;52.182;21.156;2022-11-20T02:07:03;68.63;;;26.87;;
16979;SDS011;42288;52.182;21.156;2022-11-20T02:09:29;65.87;;;27.83;;
16979;SDS011;42288;52.182;21.156;2022-11-20T02:11:55;72.00;;;29.40;;
16979;SDS011;42288;52.182;21.156;2022-11-20T02:14:22;69.57;;;28.80;;
16979;SDS011;42288;52.182;21.156;2022-11-20T02:16:48;66.50;;;26.50;;
16979;SDS011;42288;52.182;21.156;2022-11-20T02:19:22;69.00;;;27.47;;
16979;SDS011;42288;52.182;21.156;2022-11-20T02:24:39;63.87;;;26.73;;
16979;SDS011;42288;52.182;21.156;2022-11-20T02:27:07;70.13;;;28.20;;
16979;SDS011;42288;52.182;21.156;2022-11-20T02:32:33;66.80;;;28.47;;
16979;SDS011;42288;52.182;21.156;2022-11-20T02:37:34;66.77;;;29.30;;
16979;SDS011;42288;52.182;21.156;2022-11-20T02:40:03;64.10;;;26.97;;
16979;SDS011;42288;52.182;21.156;2022-11-20T02:42:29;67.67;;;27.73;;
16979;SDS011;42288;52.182;21.156;2022-11-20T02:44:55;65.40;;;29.63;;
16979;SDS011;42288;52.182;21.156;2022-11-20T02:47:20;71.87;;;29.10;;
16979;SDS011;42288;52.182;21.156;2022-11-20T02:49:46;68.50;;;28.93;;
16979;SDS011;42288;52.182;21.156;2022-11-20T02:52:11;82.33;;;29.97;;
16979;SDS011;42288;52.182;21.156;2022-11-20T02:54:37;72.90;;;30.50;;
16979;SDS011;42288;52.182;21.156;2022-11-20T02:57:02;69.23;;;28.17;;
16979;SDS011;42288;52.182;21.156;2022-11-20T02:59:27;64.07;;;27.77;;
16979;SDS011;42288;52.182;21.156;2022-11-20T03:01:53;66.53;;;27.87;;
16979;SDS011;42288;52.182;21.156;2022-11-20T03:04:18;71.33;;;28.03;;
16979;SDS011;42288;52.182;21.156;2022-11-20T03:06:44;67.27;;;29.30;;
16979;SDS011;42288;52.182;21.156;2022-11-20T03:09:10;72.03;;;27.67;;
16979;SDS011;42288;52.182;21.156;2022-11-20T03:11:35;66.13;;;29.77;;
16979;SDS011;42288;52.182;21.156;2022-11-20T03:14:02;67.27;;;27.90;;
16979;SDS011;42288;52.182;21.156;2022-11-20T03:16:28;71.47;;;29.20;;
16979;SDS011;42288;52.182;21.156;2022-11-20T03:18:55;65.33;;;29.70;;
16979;SDS011;42288;52.182;21.156;2022-11-20T03:21:21;72.63;;;30.43;;
16979;SDS011;42288;52.182;21.156;2022-11-20T03:23:46;78.87;;;30.00;;
16979;SDS011;42288;52.182;21.156;2022-11-20T03:26:13;74.37;;;29.17;;
16979;SDS011;42288;52.182;21.156;2022-11-20T03:28:47;63.00;;;27.27;;
16979;SDS011;42288;52.182;21.156;2022-11-20T03:31:15;66.80;;;28.20;;
16979;SDS011;42288;52.182;21.156;2022-11-20T03:33:42;64.10;;;28.03;;
16979;SDS011;42288;52.182;21.156;2022-11-20T03:36:09;63.50;;;26.40;;
16979;SDS011;42288;52.182;21.156;2022-11-20T03:38:36;73.67;;;29.03;;
16979;SDS011;42288;52.182;21.156;2022-11-20T03:41:06;69.60;;;28.70;;
16979;SDS011;42288;52.182;21.156;2022-11-20T03:43:33;67.57;;;26.77;;
16979;SDS011;42288;52.182;21.156;2022-11-20T03:45:59;74.53;;;28.13;;
16979;SDS011;42288;52.182;21.156;2022-11-20T03:48:25;70.53;;;26.80;;
16979;SDS011;42288;52.182;21.156;2022-11-20T03:50:51;72.97;;;30.30;;
16979;SDS011;42288;52.182;21.156;2022-11-20T03:53:17;68.23;;;27.50;;
16979;SDS011;42288;52.182;21.156;2022-11-20T03:55:43;68.23;;;29.13;;
16979;SDS011;42288;52.182;21.156;2022-11-20T03:58:09;66.93;;;27.17;;
16979;SDS011;42288;52.182;21.156;2022-11-20T04:00:35;64.90;;;27.13;;
16979;SDS011;42288;52.182;21.156;2022-11-20T04:03:01;62.27;;;26.80;;
16979;SDS011;42288;52.182;21.156;2022-11-20T04:05:27;62.23;;;26.80;;
16979;SDS011;42288;52.182;21.156;2022-11-20T04:07:53;57.97;;;24.30;;
16979;SDS011;42288;52.182;21.156;2022-11-20T04:10:19;60.47;;;26.00;;
16979;SDS011;42288;52.182;21.156;2022-11-20T04:12:45;61.70;;;25.10;;
16979;SDS011;42288;52.182;21.156;2022-11-20T04:15:10;68.03;;;28.07;;
16979;SDS011;42288;52.182;21.156;2022-11-20T04:17:36;63.67;;;27.53;;
16979;SDS011;42288;52.182;21.156;2022-11-20T04:20:02;68.33;;;28.37;;
16979;SDS011;42288;52.182;21.156;2022-11-20T04:22:28;63.27;;;25.63;;
16979;SDS011;42288;52.182;21.156;2022-11-20T04:24:53;59.50;;;24.50;;
16979;SDS011;42288;52.182;21.156;2022-11-20T04:27:19;60.07;;;24.67;;
16979;SDS011;42288;52.182;21.156;2022-11-20T04:29:44;64.73;;;27.37;;
16979;SDS011;42288;52.182;21.156;2022-11-20T04:32:10;60.20;;;24.37;;
16979;SDS011;42288;52.182;21.156;2022-11-20T04:34:35;66.50;;;26.33;;
16979;SDS011;42288;52.182;21.156;2022-11-20T04:37:01;71.47;;;27.53;;
16979;SDS011;42288;52.182;21.156;2022-11-20T04:39:26;63.03;;;26.67;;
16979;SDS011;42288;52.182;21.156;2022-11-20T04:41:52;63.33;;;26.33;;
16979;SDS011;42288;52.182;21.156;2022-11-20T04:44:37;63.67;;;26.03;;
16979;SDS011;42288;52.182;21.156;2022-11-20T04:47:03;61.40;;;25.40;;
16979;SDS011;42288;52.182;21.156;2022-11-20T04:49:28;60.17;;;24.90;;
16979;SDS011;42288;52.182;21.156;2022-11-20T04:51:54;65.77;;;25.40;;
16979;SDS011;42288;52.182;21.156;2022-11-20T04:54:19;59.87;;;23.90;;
16979;SDS011;42288;52.182;21.156;2022-11-20T04:56:47;58.13;;;23.53;;
16979;SDS011;42288;52.182;21.156;2022-11-20T04:59:13;59.43;;;25.20;;
16979;SDS011;42288;52.182;21.156;2022-11-20T05:01:39;63.67;;;24.70;;
16979;SDS011;42288;52.182;21.156;2022-11-20T05:04:04;62.60;;;25.97;;
16979;SDS011;42288;52.182;21.156;2022-11-20T05:06:30;59.87;;;25.30;;
16979;SDS011;42288;52.182;21.156;2022-11-20T05:08:56;60.97;;;25.17;;
16979;SDS011;42288;52.182;21.156;2022-11-20T05:11:22;65.07;;;25.87;;
16979;SDS011;42288;52.182;21.156;2022-11-20T05:13:48;58.40;;;24.93;;
16979;SDS011;42288;52.182;21.156;2022-11-20T05:16:15;64.10;;;26.07;;
16979;SDS011;42288;52.182;21.156;2022-11-20T05:18:42;58.90;;;24.23;;
16979;SDS011;42288;52.182;21.156;2022-11-20T05:21:09;59.80;;;24.93;;
16979;SDS011;42288;52.182;21.156;2022-11-20T05:23:35;66.60;;;25.77;;
16979;SDS011;42288;52.182;21.156;2022-11-20T05:26:02;59.67;;;23.77;;
16979;SDS011;42288;52.182;21.156;2022-11-20T05:28:29;66.43;;;27.77;;
16979;SDS011;42288;52.182;21.156;2022-11-20T05:30:55;60.17;;;25.10;;
16979;SDS011;42288;52.182;21.156;2022-11-20T05:33:21;68.80;;;26.40;;
16979;SDS011;42288;52.182;21.156;2022-11-20T05:35:47;64.93;;;25.80;;
16979;SDS011;42288;52.182;21.156;2022-11-20T05:38:13;60.50;;;26.13;;
16979;SDS011;42288;52.182;21.156;2022-11-20T05:40:39;64.90;;;26.87;;
16979;SDS011;42288;52.182;21.156;2022-11-20T05:43:04;57.60;;;25.47;;
16979;SDS011;42288;52.182;21.156;2022-11-20T05:45:30;60.93;;;25.40;;
16979;SDS011;42288;52.182;21.156;2022-11-20T05:47:58;65.73;;;25.43;;
16979;SDS011;42288;52.182;21.156;2022-11-20T05:50:25;72.37;;;28.40;;
16979;SDS011;42288;52.182;21.156;2022-11-20T05:52:51;73.67;;;28.13;;
16979;SDS011;42288;52.182;21.156;2022-11-20T05:55:16;61.50;;;26.07;;
16979;SDS011;42288;52.182;21.156;2022-11-20T05:57:42;69.17;;;28.93;;
16979;SDS011;42288;52.182;21.156;2022-11-20T06:00:07;66.33;;;28.13;;
16979;SDS011;42288;52.182;21.156;2022-11-20T06:02:36;69.10;;;26.77;;
16979;SDS011;42288;52.182;21.156;2022-11-20T06:05:02;70.53;;;26.90;;
16979;SDS011;42288;52.182;21.156;2022-11-20T06:07:28;72.33;;;27.77;;
16979;SDS011;42288;52.182;21.156;2022-11-20T06:09:53;71.30;;;28.23;;
16979;SDS011;42288;52.182;21.156;2022-11-20T06:12:19;73.33;;;28.70;;
16979;SDS011;42288;52.182;21.156;2022-11-20T06:14:44;71.33;;;27.53;;
16979;SDS011;42288;52.182;21.156;2022-11-20T06:17:09;70.70;;;29.67;;
16979;SDS011;42288;52.182;21.156;2022-11-20T06:19:35;79.93;;;30.93;;
16979;SDS011;42288;52.182;21.156;2022-11-20T06:22:00;75.90;;;30.57;;
16979;SDS011;42288;52.182;21.156;2022-11-20T06:24:26;78.27;;;30.03;;
16979;SDS011;42288;52.182;21.156;2022-11-20T06:26:51;70.00;;;29.10;;
16979;SDS011;42288;52.182;21.156;2022-11-20T06:29:17;69.70;;;28.00;;
16979;SDS011;42288;52.182;21.156;2022-11-20T06:31:42;60.67;;;27.47;;
16979;SDS011;42288;52.182;21.156;2022-11-20T06:34:08;65.50;;;26.63;;
16979;SDS011;42288;52.182;21.156;2022-11-20T06:36:33;63.17;;;27.83;;
16979;SDS011;42288;52.182;21.156;2022-11-20T06:38:59;69.23;;;28.57;;
16979;SDS011;42288;52.182;21.156;2022-11-20T06:41:26;64.17;;;28.00;;
16979;SDS011;42288;52.182;21.156;2022-11-20T06:43:52;63.77;;;28.40;;
16979;SDS011;42288;52.182;21.156;2022-11-20T06:46:18;64.03;;;26.30;;
16979;SDS011;42288;52.182;21.156;2022-11-20T06:48:45;66.67;;;27.70;;
16979;SDS011;42288;52.182;21.156;2022-11-20T06:51:11;64.03;;;26.40;;
16979;SDS011;42288;52.182;21.156;2022-11-20T06:53:37;68.57;;;27.87;;
16979;SDS011;42288;52.182;21.156;2022-11-20T06:56:03;67.37;;;29.23;;
16979;SDS011;42288;52.182;21.156;2022-11-20T06:58:30;65.23;;;28.83;;
16979;SDS011;42288;52.182;21.156;2022-11-20T07:00:57;67.93;;;29.03;;
16979;SDS011;42288;52.182;21.156;2022-11-20T07:03:24;75.13;;;31.70;;
16979;SDS011;42288;52.182;21.156;2022-11-20T07:05:49;77.57;;;32.37;;
16979;SDS011;42288;52.182;21.156;2022-11-20T07:08:15;71.17;;;31.67;;
16979;SDS011;42288;52.182;21.156;2022-11-20T07:10:40;69.70;;;29.73;;
16979;SDS011;42288;52.182;21.156;2022-11-20T07:13:06;72.63;;;30.73;;
16979;SDS011;42288;52.182;21.156;2022-11-20T07:15:31;89.10;;;37.80;;
16979;SDS011;42288;52.182;21.156;2022-11-20T07:18:00;80.43;;;33.50;;
16979;SDS011;42288;52.182;21.156;2022-11-20T07:20:26;76.83;;;32.63;;
16979;SDS011;42288;52.182;21.156;2022-11-20T07:22:53;75.43;;;34.07;;
16979;SDS011;42288;52.182;21.156;2022-11-20T07:25:19;88.03;;;36.70;;
16979;SDS011;42288;52.182;21.156;2022-11-20T07:27:45;77.83;;;31.87;;
16979;SDS011;42288;52.182;21.156;2022-11-20T07:30:11;76.00;;;33.50;;
16979;SDS011;42288;52.182;21.156;2022-11-20T07:32:37;65.57;;;29.47;;
16979;SDS011;42288;52.182;21.156;2022-11-20T07:35:02;69.87;;;29.10;;
16979;SDS011;42288;52.182;21.156;2022-11-20T07:37:28;74.80;;;32.57;;
16979;SDS011;42288;52.182;21.156;2022-11-20T07:39:53;68.97;;;31.50;;
16979;SDS011;42288;52.182;21.156;2022-11-20T07:42:19;66.13;;;30.67;;
16979;SDS011;42288;52.182;21.156;2022-11-20T07:44:44;71.13;;;31.20;;
16979;SDS011;42288;52.182;21.156;2022-11-20T07:47:10;76.17;;;31.57;;
16979;SDS011;42288;52.182;21.156;2022-11-20T07:49:35;79.73;;;31.93;;
16979;SDS011;42288;52.182;21.156;2022-11-20T07:52:01;65.33;;;29.00;;
16979;SDS011;42288;52.182;21.156;2022-11-20T07:54:26;74.57;;;33.10;;
16979;SDS011;42288;52.182;21.156;2022-11-20T07:56:52;69.80;;;29.30;;
16979;SDS011;42288;52.182;21.156;2022-11-20T07:59:18;68.33;;;29.47;;
16979;SDS011;42288;52.182;21.156;2022-11-20T08:01:44;64.17;;;28.00;;
16979;SDS011;42288;52.182;21.156;2022-11-20T08:04:09;69.60;;;30.80;;
16979;SDS011;42288;52.182;21.156;2022-11-20T08:06:35;76.07;;;32.70;;
16979;SDS011;42288;52.182;21.156;2022-11-20T08:09:01;67.23;;;28.67;;
16979;SDS011;42288;52.182;21.156;2022-11-20T08:11:27;63.03;;;29.33;;
16979;SDS011;42288;52.182;21.156;2022-11-20T08:14:11;55.07;;;21.33;;
16979;SDS011;42288;52.182;21.156;2022-11-20T08:16:40;66.23;;;27.60;;
16979;SDS011;42288;52.182;21.156;2022-11-20T08:19:11;58.30;;;25.20;;
16979;SDS011;42288;52.182;21.156;2022-11-20T08:21:37;63.93;;;29.90;;
16979;SDS011;42288;52.182;21.156;2022-11-20T08:24:03;57.93;;;23.43;;
16979;SDS011;42288;52.182;21.156;2022-11-20T08:26:29;63.00;;;26.80;;
16979;SDS011;42288;52.182;21.156;2022-11-20T08:28:55;62.97;;;26.77;;
16979;SDS011;42288;52.182;21.156;2022-11-20T08:31:22;65.93;;;28.13;;
16979;SDS011;42288;52.182;21.156;2022-11-20T08:33:48;55.77;;;24.57;;
16979;SDS011;42288;52.182;21.156;2022-11-20T08:36:16;60.00;;;25.07;;
16979;SDS011;42288;52.182;21.156;2022-11-20T08:38:41;65.83;;;25.50;;
16979;SDS011;42288;52.182;21.156;2022-11-20T08:41:11;53.73;;;23.27;;
16979;SDS011;42288;52.182;21.156;2022-11-20T08:43:59;59.63;;;26.13;;
16979;SDS011;42288;52.182;21.156;2022-11-20T08:46:38;55.20;;;24.53;;
16979;SDS011;42288;52.182;21.156;2022-11-20T08:49:06;66.80;;;28.27;;
16979;SDS011;42288;52.182;21.156;2022-11-20T08:51:33;57.90;;;25.97;;
16979;SDS011;42288;52.182;21.156;2022-11-20T08:53:59;69.60;;;33.07;;
16979;SDS011;42288;52.182;21.156;2022-11-20T08:56:25;76.70;;;37.50;;
16979;SDS011;42288;52.182;21.156;2022-11-20T08:58:51;51.87;;;23.33;;
16979;SDS011;42288;52.182;21.156;2022-11-20T09:01:17;61.83;;;26.70;;
16979;SDS011;42288;52.182;21.156;2022-11-20T09:03:44;61.10;;;26.37;;
16979;SDS011;42288;52.182;21.156;2022-11-20T09:06:10;72.13;;;31.37;;
16979;SDS011;42288;52.182;21.156;2022-11-20T09:08:36;59.67;;;26.60;;
16979;SDS011;42288;52.182;21.156;2022-11-20T09:11:01;56.83;;;25.77;;
16979;SDS011;42288;52.182;21.156;2022-11-20T09:13:28;63.00;;;27.70;;
16979;SDS011;42288;52.182;21.156;2022-11-20T09:15:58;59.57;;;25.60;;
16979;SDS011;42288;52.182;21.156;2022-11-20T09:18:25;65.90;;;29.93;;
16979;SDS011;42288;52.182;21.156;2022-11-20T09:20:55;60.93;;;27.27;;
16979;SDS011;42288;52.182;21.156;2022-11-20T09:23:21;67.33;;;29.73;;
16979;SDS011;42288;52.182;21.156;2022-11-20T09:25:47;67.13;;;28.23;;
16979;SDS011;42288;52.182;21.156;2022-11-20T09:28:12;68.37;;;26.83;;
16979;SDS011;42288;52.182;21.156;2022-11-20T09:30:38;65.47;;;29.63;;
16979;SDS011;42288;52.182;21.156;2022-11-20T09:33:04;49.83;;;21.80;;
16979;SDS011;42288;52.182;21.156;2022-11-20T09:35:31;64.47;;;26.17;;
16979;SDS011;42288;52.182;21.156;2022-11-20T09:37:57;63.57;;;29.17;;
16979;SDS011;42288;52.182;21.156;2022-11-20T09:40:23;57.50;;;26.93;;
16979;SDS011;42288;52.182;21.156;2022-11-20T09:43:12;60.20;;;27.77;;
16979;SDS011;42288;52.182;21.156;2022-11-20T09:46:14;54.50;;;25.13;;
16979;SDS011;42288;52.182;21.156;2022-11-20T09:51:58;54.00;;;23.53;;
16979;SDS011;42288;52.182;21.156;2022-11-20T09:54:27;56.50;;;26.50;;
16979;SDS011;42288;52.182;21.156;2022-11-20T09:56:58;64.47;;;27.03;;
16979;SDS011;42288;52.182;21.156;2022-11-20T10:00:09;57.90;;;24.37;;
16979;SDS011;42288;52.182;21.156;2022-11-20T10:08:07;49.50;;;24.47;;
16979;SDS011;42288;52.182;21.156;2022-11-20T10:10:40;46.37;;;22.90;;
16979;SDS011;42288;52.182;21.156;2022-11-20T10:18:42;51.87;;;25.43;;
16979;SDS011;42288;52.182;21.156;2022-11-20T10:29:18;50.67;;;23.87;;
16979;SDS011;42288;52.182;21.156;2022-11-20T10:31:55;45.93;;;23.07;;
16979;SDS011;42288;52.182;21.156;2022-11-20T10:34:38;54.10;;;25.67;;
16979;SDS011;42288;52.182;21.156;2022-11-20T10:37:18;49.40;;;23.17;;
16979;SDS011;42288;52.182;21.156;2022-11-20T10:39:50;46.50;;;23.80;;
16979;SDS011;42288;52.182;21.156;2022-11-20T10:42:34;47.03;;;24.00;;
16979;SDS011;42288;52.182;21.156;2022-11-20T10:45:26;49.87;;;23.03;;
16979;SDS011;42288;52.182;21.156;2022-11-20T10:48:21;48.37;;;23.93;;
16979;SDS011;42288;52.182;21.156;2022-11-20T10:50:50;50.80;;;24.43;;
16979;SDS011;42288;52.182;21.156;2022-11-20T10:53:40;49.20;;;25.30;;
16979;SDS011;42288;52.182;21.156;2022-11-20T10:56:30;46.83;;;24.60;;
16979;SDS011;42288;52.182;21.156;2022-11-20T11:01:51;56.13;;;26.87;;
16979;SDS011;42288;52.182;21.156;2022-11-20T11:07:05;49.53;;;25.57;;
16979;SDS011;42288;52.182;21.156;2022-11-20T11:09:39;50.33;;;24.47;;
16979;SDS011;42288;52.182;21.156;2022-11-20T11:12:08;51.77;;;24.40;;
16979;SDS011;42288;52.182;21.156;2022-11-20T11:14:42;48.63;;;23.63;;
16979;SDS011;42288;52.182;21.156;2022-11-20T11:17:17;51.73;;;24.20;;
16979;SDS011;42288;52.182;21.156;2022-11-20T11:22:44;56.53;;;26.20;;
16979;SDS011;42288;52.182;21.156;2022-11-20T11:25:18;53.17;;;26.50;;
16979;SDS011;42288;52.182;21.156;2022-11-20T11:27:49;55.13;;;25.23;;
16979;SDS011;42288;52.182;21.156;2022-11-20T11:30:16;54.03;;;24.63;;
16979;SDS011;42288;52.182;21.156;2022-11-20T11:32:44;54.30;;;27.07;;
16979;SDS011;42288;52.182;21.156;2022-11-20T11:35:31;46.53;;;23.30;;
16979;SDS011;42288;52.182;21.156;2022-11-20T11:38:03;56.53;;;26.23;;
16979;SDS011;42288;52.182;21.156;2022-11-20T11:40:32;59.63;;;29.27;;
16979;SDS011;42288;52.182;21.156;2022-11-20T11:43:01;51.43;;;26.30;;
16979;SDS011;42288;52.182;21.156;2022-11-20T11:45:30;47.63;;;23.27;;
16979;SDS011;42288;52.182;21.156;2022-11-20T11:47:56;54.60;;;27.33;;
16979;SDS011;42288;52.182;21.156;2022-11-20T11:50:25;58.77;;;25.63;;
16979;SDS011;42288;52.182;21.156;2022-11-20T11:53:07;52.77;;;28.17;;
16979;SDS011;42288;52.182;21.156;2022-11-20T12:01:07;51.83;;;25.20;;
16979;SDS011;42288;52.182;21.156;2022-11-20T12:04:00;54.53;;;25.17;;
16979;SDS011;42288;52.182;21.156;2022-11-20T12:06:33;54.30;;;25.57;;
16979;SDS011;42288;52.182;21.156;2022-11-20T12:09:05;50.73;;;24.10;;
16979;SDS011;42288;52.182;21.156;2022-11-20T12:16:36;47.30;;;22.33;;
16979;SDS011;42288;52.182;21.156;2022-11-20T12:19:04;47.47;;;23.43;;
16979;SDS011;42288;52.182;21.156;2022-11-20T12:24:32;49.00;;;25.80;;
16979;SDS011;42288;52.182;21.156;2022-11-20T12:30:16;45.00;;;22.57;;
16979;SDS011;42288;52.182;21.156;2022-11-20T12:35:34;50.33;;;25.00;;
16979;SDS011;42288;52.182;21.156;2022-11-20T12:43:37;55.27;;;26.50;;
16979;SDS011;42288;52.182;21.156;2022-11-20T12:46:44;49.77;;;23.77;;
16979;SDS011;42288;52.182;21.156;2022-11-20T12:52:12;46.47;;;24.30;;
16979;SDS011;42288;52.182;21.156;2022-11-20T12:54:58;48.83;;;23.83;;
16979;SDS011;42288;52.182;21.156;2022-11-20T13:00:30;52.80;;;25.37;;
16979;SDS011;42288;52.182;21.156;2022-11-20T13:05:58;50.43;;;25.30;;
16979;SDS011;42288;52.182;21.156;2022-11-20T13:08:28;47.10;;;26.03;;
16979;SDS011;42288;52.182;21.156;2022-11-20T13:11:19;50.20;;;26.17;;
16979;SDS011;42288;52.182;21.156;2022-11-20T13:13:56;49.93;;;23.60;;
16979;SDS011;42288;52.182;21.156;2022-11-20T13:19:39;51.70;;;25.13;;
16979;SDS011;42288;52.182;21.156;2022-11-20T13:22:05;48.87;;;24.63;;
16979;SDS011;42288;52.182;21.156;2022-11-20T13:24:34;52.97;;;25.97;;
16979;SDS011;42288;52.182;21.156;2022-11-20T13:29:37;47.90;;;24.30;;
16979;SDS011;42288;52.182;21.156;2022-11-20T13:32:18;55.60;;;26.63;;
16979;SDS011;42288;52.182;21.156;2022-11-20T13:34:55;55.73;;;25.40;;
16979;SDS011;42288;52.182;21.156;2022-11-20T13:37:27;49.17;;;24.60;;
16979;SDS011;42288;52.182;21.156;2022-11-20T13:42:36;54.73;;;26.87;;
16979;SDS011;42288;52.182;21.156;2022-11-20T13:45:09;53.73;;;26.30;;
16979;SDS011;42288;52.182;21.156;2022-11-20T13:47:50;52.17;;;25.63;;
16979;SDS011;42288;52.182;21.156;2022-11-20T13:50:17;57.30;;;25.70;;
16979;SDS011;42288;52.182;21.156;2022-11-20T13:52:49;55.67;;;27.90;;
16979;SDS011;42288;52.182;21.156;2022-11-20T13:58:35;54.63;;;25.80;;
16979;SDS011;42288;52.182;21.156;2022-11-20T14:01:17;52.63;;;25.47;;
16979;SDS011;42288;52.182;21.156;2022-11-20T14:03:46;57.57;;;26.63;;
16979;SDS011;42288;52.182;21.156;2022-11-20T14:06:21;58.93;;;27.37;;
16979;SDS011;42288;52.182;21.156;2022-11-20T14:08:54;59.67;;;28.53;;
16979;SDS011;42288;52.182;21.156;2022-11-20T14:11:24;56.53;;;28.63;;
16979;SDS011;42288;52.182;21.156;2022-11-20T14:16:49;59.83;;;28.60;;
16979;SDS011;42288;52.182;21.156;2022-11-20T14:19:28;62.43;;;28.83;;
16979;SDS011;42288;52.182;21.156;2022-11-20T14:22:08;58.97;;;26.87;;
16979;SDS011;42288;52.182;21.156;2022-11-20T14:24:45;61.07;;;27.43;;
16979;SDS011;42288;52.182;21.156;2022-11-20T14:27:12;67.93;;;30.37;;
16979;SDS011;42288;52.182;21.156;2022-11-20T14:29:47;66.93;;;28.83;;
16979;SDS011;42288;52.182;21.156;2022-11-20T14:32:16;62.70;;;31.37;;
16979;SDS011;42288;52.182;21.156;2022-11-20T14:34:43;66.20;;;30.03;;
16979;SDS011;42288;52.182;21.156;2022-11-20T14:37:11;69.10;;;29.57;;
16979;SDS011;42288;52.182;21.156;2022-11-20T14:39:42;62.67;;;29.13;;
16979;SDS011;42288;52.182;21.156;2022-11-20T14:42:16;63.87;;;30.90;;
16979;SDS011;42288;52.182;21.156;2022-11-20T14:44:43;66.47;;;31.27;;
16979;SDS011;42288;52.182;21.156;2022-11-20T14:47:11;69.43;;;30.77;;
16979;SDS011;42288;52.182;21.156;2022-11-20T14:49:38;72.43;;;32.50;;
16979;SDS011;42288;52.182;21.156;2022-11-20T14:52:38;70.73;;;32.13;;
16979;SDS011;42288;52.182;21.156;2022-11-20T14:54:57;71.87;;;31.87;;
16979;SDS011;42288;52.182;21.156;2022-11-20T15:00:03;64.50;;;28.67;;
16979;SDS011;42288;52.182;21.156;2022-11-20T15:02:44;78.40;;;34.57;;
16979;SDS011;42288;52.182;21.156;2022-11-20T15:05:11;64.00;;;27.37;;
16979;SDS011;42288;52.182;21.156;2022-11-20T15:07:39;60.33;;;28.87;;
16979;SDS011;42288;52.182;21.156;2022-11-20T15:10:11;66.20;;;27.77;;
16979;SDS011;42288;52.182;21.156;2022-11-20T15:12:50;70.57;;;29.70;;
16979;SDS011;42288;52.182;21.156;2022-11-20T15:15:25;91.23;;;38.10;;
16979;SDS011;42288;52.182;21.156;2022-11-20T15:18:13;125.63;;;55.13;;
16979;SDS011;42288;52.182;21.156;2022-11-20T15:20:41;108.03;;;44.63;;
16979;SDS011;42288;52.182;21.156;2022-11-20T15:23:17;240.77;;;96.80;;
16979;SDS011;42288;52.182;21.156;2022-11-20T15:25:44;333.63;;;127.23;;
16979;SDS011;42288;52.182;21.156;2022-11-20T15:28:18;78.07;;;36.70;;
16979;SDS011;42288;52.182;21.156;2022-11-20T15:30:55;65.53;;;30.70;;
16979;SDS011;42288;52.182;21.156;2022-11-20T15:33:21;61.57;;;28.80;;
16979;SDS011;42288;52.182;21.156;2022-11-20T15:35:46;65.33;;;32.33;;
16979;SDS011;42288;52.182;21.156;2022-11-20T15:38:12;58.30;;;29.30;;
16979;SDS011;42288;52.182;21.156;2022-11-20T15:40:38;57.83;;;26.97;;
16979;SDS011;42288;52.182;21.156;2022-11-20T15:43:03;72.17;;;31.13;;
16979;SDS011;42288;52.182;21.156;2022-11-20T15:45:39;63.17;;;29.30;;
16979;SDS011;42288;52.182;21.156;2022-11-20T15:48:08;62.67;;;28.97;;
16979;SDS011;42288;52.182;21.156;2022-11-20T15:50:46;59.30;;;27.73;;
16979;SDS011;42288;52.182;21.156;2022-11-20T15:53:19;59.13;;;27.80;;
16979;SDS011;42288;52.182;21.156;2022-11-20T15:55:44;64.07;;;27.57;;